createdAt,value
2022-10-19T00:01:08.581Z,34.53
2022-10-19T00:03:36.288Z,28.52
2022-10-19T00:06:13.750Z,23.58
2022-10-19T00:08:40.467Z,34.65
2022-10-19T00:11:07.469Z,24.85
2022-10-19T00:13:34.104Z,26.08
2022-10-19T00:16:00.660Z,24.77
2022-10-19T00:18:27.243Z,27.83
2022-10-19T00:21:01.980Z,28.02
2022-10-19T00:25:56.209Z,26.10
2022-10-19T00:28:22.945Z,21.52
2022-10-19T00:33:22.529Z,30.13
2022-10-19T00:35:50.836Z,27.50
2022-10-19T00:38:19.137Z,32.00
2022-10-19T00:40:46.531Z,30.95
2022-10-19T00:43:15.866Z,32.45
2022-10-19T00:45:42.802Z,29.40
2022-10-19T00:48:13.224Z,29.75
2022-10-19T00:50:40.779Z,35.30
2022-10-19T00:53:07.325Z,32.50
2022-10-19T00:55:34.713Z,31.98
2022-10-19T00:58:03.072Z,31.88
2022-10-19T01:00:29.996Z,29.63
2022-10-19T01:02:59.044Z,37.53
2022-10-19T01:05:26.472Z,28.20
2022-10-19T01:07:53.931Z,31.88
2022-10-19T01:10:25.211Z,26.33
2022-10-19T01:13:14.887Z,30.00
2022-10-19T01:16:01.632Z,27.88
2022-10-19T01:18:45.296Z,27.88
2022-10-19T01:21:21.723Z,25.00
2022-10-19T01:24:07.057Z,26.25
2022-10-19T01:26:52.404Z,28.30
2022-10-19T01:29:52.846Z,25.35
2022-10-19T01:32:38.214Z,25.20
2022-10-19T01:35:17.031Z,25.88
2022-10-19T01:37:59.252Z,25.42
2022-10-19T01:40:42.705Z,24.00
2022-10-19T01:43:23.171Z,24.48
2022-10-19T01:45:55.519Z,28.67
2022-10-19T01:48:35.524Z,31.08
2022-10-19T01:51:06.293Z,24.25
2022-10-19T01:53:40.393Z,31.67
2022-10-19T01:56:08.692Z,28.88
2022-10-19T01:58:38.769Z,27.65
2022-10-19T02:01:09.174Z,28.73
2022-10-19T02:03:37.534Z,28.08
2022-10-19T02:06:06.473Z,30.65
2022-10-19T02:08:53.138Z,34.83
2022-10-19T02:11:21.945Z,31.05
2022-10-19T02:14:04.509Z,26.45
2022-10-19T02:16:38.754Z,31.77
2022-10-19T02:19:08.777Z,31.52
2022-10-19T02:21:35.558Z,27.23
2022-10-19T02:24:02.043Z,27.60
2022-10-19T02:26:28.627Z,28.60
2022-10-19T02:28:56.664Z,34.85
2022-10-19T02:31:24.421Z,26.80
2022-10-19T02:33:51.524Z,25.48
2022-10-19T02:36:18.740Z,23.98
2022-10-19T02:38:45.373Z,25.17
2022-10-19T02:41:22.048Z,28.17
2022-10-19T02:43:52.983Z,23.42
2022-10-19T02:46:49.791Z,31.52
2022-10-19T02:49:16.869Z,37.45
2022-10-19T02:52:01.605Z,31.92
2022-10-19T02:54:29.085Z,33.88
2022-10-19T02:56:56.583Z,30.45
2022-10-19T02:59:23.933Z,33.95
2022-10-19T03:01:50.863Z,30.42
2022-10-19T03:04:17.689Z,30.85
2022-10-19T03:06:44.424Z,34.58
2022-10-19T03:09:10.968Z,30.33
2022-10-19T03:11:37.577Z,26.10
2022-10-19T03:14:04.123Z,29.73
2022-10-19T03:16:30.686Z,29.45
2022-10-19T03:18:57.216Z,27.58
2022-10-19T03:21:23.917Z,26.63
2022-10-19T03:23:50.462Z,23.30
2022-10-19T03:26:18.007Z,23.45
2022-10-19T03:28:44.669Z,24.77
2022-10-19T03:31:11.859Z,23.15
2022-10-19T03:33:38.505Z,23.33
2022-10-19T03:36:23.811Z,28.35
2022-10-19T03:38:51.930Z,21.27
2022-10-19T03:41:19.981Z,22.38
2022-10-19T03:43:46.687Z,26.25
2022-10-19T03:46:13.453Z,22.70
2022-10-19T03:48:40.087Z,21.25
2022-10-19T03:51:09.277Z,19.85
2022-10-19T03:53:36.634Z,18.70
2022-10-19T03:56:15.284Z,16.83
2022-10-19T03:58:43.025Z,20.95
2022-10-19T04:01:12.304Z,16.88
2022-10-19T04:03:39.101Z,16.05
2022-10-19T04:06:26.756Z,19.52
2022-10-19T04:08:53.785Z,18.83
2022-10-19T04:11:26.592Z,18.45
2022-10-19T04:13:54.778Z,20.05
2022-10-19T04:16:23.125Z,18.27
2022-10-19T04:18:49.916Z,15.75
2022-10-19T04:21:28.393Z,17.33
2022-10-19T04:24:01.569Z,16.20
2022-10-19T04:26:28.249Z,16.83
2022-10-19T04:28:57.997Z,15.98
2022-10-19T04:31:25.127Z,18.67
2022-10-19T04:33:51.714Z,18.80
2022-10-19T04:36:18.373Z,20.27
2022-10-19T04:38:44.996Z,17.25
2022-10-19T04:41:13.786Z,17.35
2022-10-19T04:43:40.830Z,18.33
2022-10-19T04:46:14.325Z,17.40
2022-10-19T04:48:41.678Z,20.73
2022-10-19T04:51:09.249Z,18.33
2022-10-19T04:53:38.158Z,15.43
2022-10-19T04:56:06.958Z,19.60
2022-10-19T04:58:34.312Z,19.23
2022-10-19T05:01:07.972Z,19.40
2022-10-19T05:03:34.540Z,16.80
2022-10-19T05:06:01.084Z,21.05
2022-10-19T05:08:27.613Z,20.70
2022-10-19T05:10:54.211Z,19.90
2022-10-19T05:13:20.902Z,21.38
2022-10-19T05:15:58.149Z,23.50
2022-10-19T05:18:24.915Z,23.48
2022-10-19T05:20:51.644Z,21.90
2022-10-19T05:23:18.196Z,21.67
2022-10-19T05:25:44.893Z,26.45
2022-10-19T05:28:11.622Z,29.48
2022-10-19T05:30:39.282Z,28.35
2022-10-19T05:33:05.932Z,21.67
2022-10-19T05:35:32.533Z,20.48
2022-10-19T05:37:59.073Z,21.42
2022-10-19T05:40:25.591Z,24.27
2022-10-19T05:42:52.124Z,21.75
2022-10-19T05:45:18.747Z,22.35
2022-10-19T05:47:45.267Z,24.95
2022-10-19T05:50:11.794Z,15.88
2022-10-19T05:52:38.312Z,18.90
2022-10-19T05:55:05.386Z,19.67
2022-10-19T05:57:32.990Z,16.38
2022-10-19T05:59:59.871Z,20.17
2022-10-19T06:02:26.385Z,17.52
2022-10-19T06:04:52.998Z,17.55
2022-10-19T06:07:19.543Z,16.27
2022-10-19T06:09:46.211Z,15.75
2022-10-19T06:12:13.496Z,18.30
2022-10-19T06:14:42.526Z,17.35
2022-10-19T06:17:09.322Z,15.80
2022-10-19T06:19:35.976Z,14.02
2022-10-19T06:22:02.644Z,14.45
2022-10-19T06:24:29.178Z,19.45
2022-10-19T06:26:55.886Z,18.25
2022-10-19T06:29:22.400Z,18.70
2022-10-19T06:31:48.949Z,15.20
2022-10-19T06:34:15.687Z,15.43
2022-10-19T06:36:42.269Z,14.70
2022-10-19T06:39:09.494Z,16.40
2022-10-19T06:41:36.153Z,17.45
2022-10-19T06:44:02.779Z,15.50
2022-10-19T06:46:29.400Z,15.63
2022-10-19T06:49:01.579Z,16.23
2022-10-19T06:51:30.498Z,15.15
2022-10-19T06:53:57.640Z,15.07
2022-10-19T06:56:25.076Z,12.20
2022-10-19T06:58:52.034Z,12.52
2022-10-19T07:01:18.758Z,10.80
2022-10-19T07:03:45.700Z,11.90
2022-10-19T07:06:13.646Z,12.93
2022-10-19T07:08:41.753Z,13.48
2022-10-19T07:11:16.515Z,12.75
2022-10-19T07:16:16.007Z,17.13
2022-10-19T07:18:47.006Z,16.92
2022-10-19T07:21:16.197Z,12.82
2022-10-19T07:23:44.998Z,14.32
2022-10-19T07:26:23.836Z,14.43
2022-10-19T07:28:51.418Z,13.45
2022-10-19T07:31:21.344Z,14.27
2022-10-19T07:33:51.942Z,13.80
2022-10-19T07:36:18.478Z,13.98
2022-10-19T07:38:45.035Z,17.80
2022-10-19T07:41:16.791Z,19.73
2022-10-19T07:43:45.237Z,20.15
2022-10-19T07:46:20.376Z,17.15
2022-10-19T07:48:47.502Z,17.30
2022-10-19T07:51:15.940Z,15.80
2022-10-19T07:53:43.521Z,14.50
2022-10-19T07:56:19.287Z,13.38
2022-10-19T07:58:46.363Z,20.92
2022-10-19T08:01:15.766Z,16.17
2022-10-19T08:04:42.778Z,15.65
2022-10-19T08:06:29.572Z,14.95
2022-10-19T08:08:56.650Z,16.33
2022-10-19T08:11:26.406Z,13.68
2022-10-19T08:13:53.941Z,12.13
2022-10-19T08:16:25.089Z,10.80
2022-10-19T08:18:53.111Z,12.52
2022-10-19T08:21:19.732Z,9.30
2022-10-19T08:23:46.237Z,12.30
2022-10-19T08:26:12.850Z,10.68
2022-10-19T08:28:39.660Z,10.30
2022-10-19T08:31:22.256Z,12.90
2022-10-19T08:33:50.850Z,12.68
2022-10-19T08:36:19.712Z,14.85
2022-10-19T08:38:48.436Z,13.20
2022-10-19T08:41:39.895Z,10.45
2022-10-19T08:44:15.250Z,12.52
2022-10-19T08:47:06.113Z,11.77
2022-10-19T08:49:35.285Z,10.52
2022-10-19T08:52:11.474Z,9.95
2022-10-19T08:57:33.737Z,12.43
2022-10-19T09:00:15.406Z,9.73
2022-10-19T09:03:09.762Z,10.75
2022-10-19T09:05:52.970Z,10.32
2022-10-19T09:08:20.722Z,11.90
2022-10-19T09:10:50.565Z,8.40
2022-10-19T09:14:00.436Z,10.95
2022-10-19T09:16:29.078Z,13.35
2022-10-19T09:18:55.717Z,12.23
2022-10-19T09:21:34.443Z,10.13
2022-10-19T09:24:25.015Z,10.07
2022-10-19T09:26:53.885Z,8.68
2022-10-19T09:29:28.775Z,9.38
2022-10-19T09:34:36.784Z,10.07
2022-10-19T09:37:06.012Z,9.88
2022-10-19T09:39:32.851Z,8.93
2022-10-19T09:42:01.211Z,10.30
2022-10-19T09:44:27.862Z,8.20
2022-10-19T09:47:13.789Z,8.07
2022-10-19T09:49:46.300Z,8.57
2022-10-19T09:52:35.957Z,7.78
2022-10-19T09:55:14.717Z,8.73
2022-10-19T09:57:58.543Z,11.00
2022-10-19T10:00:31.664Z,8.07
2022-10-19T10:02:58.256Z,10.43
2022-10-19T10:05:33.885Z,6.95
2022-10-19T10:08:00.832Z,7.78
2022-10-19T10:10:39.485Z,8.85
2022-10-19T10:13:06.421Z,9.50
2022-10-19T10:15:43.642Z,7.25
2022-10-19T10:18:15.587Z,5.80
2022-10-19T10:20:59.261Z,7.35
2022-10-19T10:23:29.297Z,7.25
2022-10-19T10:25:57.854Z,6.93
2022-10-19T10:28:27.045Z,6.55
2022-10-19T10:31:08.878Z,6.63
2022-10-19T10:33:45.161Z,8.75
2022-10-19T10:36:13.188Z,10.68
2022-10-19T10:38:45.690Z,9.75
2022-10-19T10:41:18.652Z,7.68
2022-10-19T10:43:53.824Z,8.70
2022-10-19T10:46:28.325Z,8.85
2022-10-19T10:49:15.631Z,9.02
2022-10-19T10:51:54.038Z,9.57
2022-10-19T10:54:23.760Z,10.52
2022-10-19T10:57:19.988Z,13.82
2022-10-19T11:00:15.550Z,10.88
2022-10-19T11:02:52.160Z,8.85
2022-10-19T11:05:26.588Z,7.15
2022-10-19T11:08:04.835Z,7.18
2022-10-19T11:10:31.406Z,7.00
2022-10-19T11:13:24.171Z,7.95
2022-10-19T11:15:57.485Z,6.35
2022-10-19T11:18:46.128Z,6.65
2022-10-19T11:21:15.679Z,8.82
2022-10-19T11:24:02.293Z,7.70
2022-10-19T11:26:58.180Z,6.93
2022-10-19T11:29:38.256Z,7.35
2022-10-19T11:32:14.475Z,5.63
2022-10-19T11:35:20.840Z,7.97
2022-10-19T11:38:17.988Z,9.63
2022-10-19T11:40:54.234Z,8.70
2022-10-19T11:43:38.996Z,10.07
2022-10-19T11:46:45.696Z,10.55
2022-10-19T11:52:54.744Z,10.98
2022-10-19T11:55:51.288Z,12.30
2022-10-19T11:58:57.750Z,6.95
2022-10-19T12:01:46.014Z,6.68
2022-10-19T12:04:24.759Z,9.00
2022-10-19T12:07:10.845Z,7.50
2022-10-19T12:09:55.444Z,7.57
2022-10-19T12:12:36.206Z,7.43
2022-10-19T12:15:26.238Z,8.90
2022-10-19T12:17:56.170Z,10.13
2022-10-19T12:20:42.319Z,9.32
2022-10-19T12:23:25.852Z,11.23
2022-10-19T12:25:55.670Z,9.35
2022-10-19T12:28:28.053Z,10.70
2022-10-19T12:30:55.751Z,11.02
2022-10-19T12:33:37.248Z,15.98
2022-10-19T12:36:11.600Z,9.20
2022-10-19T12:38:50.734Z,8.27
2022-10-19T12:41:33.053Z,6.65
2022-10-19T12:44:02.740Z,9.63
2022-10-19T12:46:38.116Z,9.98
2022-10-19T12:49:26.595Z,7.63
2022-10-19T12:51:54.811Z,8.90
2022-10-19T12:54:26.026Z,9.05
2022-10-19T12:56:55.978Z,8.60
2022-10-19T12:59:35.014Z,7.60
2022-10-19T13:02:04.925Z,10.07
2022-10-19T13:04:34.426Z,8.90
2022-10-19T13:07:05.129Z,14.20
2022-10-19T13:09:41.930Z,12.00
2022-10-19T13:12:33.167Z,12.63
2022-10-19T13:15:02.259Z,10.20
2022-10-19T13:17:51.004Z,14.20
2022-10-19T13:20:17.503Z,10.80
2022-10-19T13:22:50.387Z,7.22
2022-10-19T13:25:19.501Z,9.02
2022-10-19T13:27:53.881Z,10.50
2022-10-19T13:30:35.726Z,8.95
2022-10-19T13:33:31.617Z,6.38
2022-10-19T13:36:04.391Z,10.52
2022-10-19T13:38:39.000Z,10.32
2022-10-19T13:41:28.029Z,10.65
2022-10-19T13:44:18.253Z,10.40
2022-10-19T13:47:00.819Z,15.07
2022-10-19T13:49:43.378Z,7.68
2022-10-19T13:52:43.523Z,10.90
2022-10-19T13:55:16.041Z,8.25
2022-10-19T13:58:04.229Z,11.30
2022-10-19T14:00:47.779Z,12.15
2022-10-19T14:03:20.576Z,12.57
2022-10-19T14:06:27.692Z,8.68
2022-10-19T14:09:25.661Z,12.98
2022-10-19T14:11:54.540Z,4.85
2022-10-19T14:14:24.238Z,9.50
2022-10-19T14:17:01.451Z,8.73
2022-10-19T14:19:43.684Z,6.35
2022-10-19T14:22:40.693Z,9.75
2022-10-19T14:25:18.307Z,4.93
2022-10-19T14:27:54.061Z,9.38
2022-10-19T14:30:21.693Z,5.82
2022-10-19T14:32:48.419Z,5.25
2022-10-19T14:35:30.839Z,10.10
2022-10-19T14:37:58.748Z,7.40
2022-10-19T14:40:28.657Z,4.70
2022-10-19T14:42:57.248Z,7.80
2022-10-19T14:45:27.117Z,6.95
2022-10-19T14:48:17.718Z,11.70
2022-10-19T14:50:51.544Z,10.35
2022-10-19T14:53:36.218Z,7.90
2022-10-19T14:56:32.919Z,6.72
2022-10-19T14:59:03.386Z,3.15
2022-10-19T15:01:30.225Z,5.80
2022-10-19T15:03:56.941Z,6.78
2022-10-19T15:06:30.551Z,8.23
2022-10-19T15:09:04.131Z,13.60
2022-10-19T15:11:37.924Z,6.05
2022-10-19T15:14:22.166Z,5.45
2022-10-19T15:16:56.935Z,5.37
2022-10-19T15:22:12.869Z,12.70
2022-10-19T15:24:40.493Z,7.75
2022-10-19T15:27:19.629Z,7.22
2022-10-19T15:30:00.376Z,7.43
2022-10-19T15:32:35.719Z,7.05
2022-10-19T15:35:18.515Z,6.45
2022-10-19T15:37:49.450Z,7.68
2022-10-19T15:40:29.664Z,4.70
2022-10-19T15:42:56.497Z,5.15
2022-10-19T15:45:38.676Z,4.82
2022-10-19T15:48:11.224Z,8.40
2022-10-19T15:50:42.672Z,4.03
2022-10-19T15:53:10.701Z,3.38
2022-10-19T15:55:37.718Z,6.20
2022-10-19T15:58:04.265Z,6.22
2022-10-19T16:00:31.041Z,8.20
2022-10-19T16:02:57.583Z,5.28
2022-10-19T16:05:24.489Z,7.13
2022-10-19T16:07:51.255Z,4.90
2022-10-19T16:10:21.944Z,4.05
2022-10-19T16:12:48.550Z,8.23
2022-10-19T16:15:22.495Z,4.15
2022-10-19T16:17:52.257Z,6.18
2022-10-19T16:20:19.569Z,8.48
2022-10-19T16:22:47.492Z,5.35
2022-10-19T16:25:14.587Z,3.95
2022-10-19T16:27:41.194Z,7.82
2022-10-19T16:30:08.413Z,4.28
2022-10-19T16:32:35.135Z,5.30
2022-10-19T16:35:01.710Z,6.45
2022-10-19T16:37:28.342Z,3.97
2022-10-19T16:39:54.836Z,5.35
2022-10-19T16:42:22.300Z,3.42
2022-10-19T16:44:49.535Z,4.20
2022-10-19T16:47:17.136Z,2.55
2022-10-19T16:49:43.706Z,4.60
2022-10-19T16:52:14.107Z,6.03
2022-10-19T16:54:40.851Z,4.53
2022-10-19T16:57:10.075Z,2.30
2022-10-19T16:59:36.806Z,5.38
2022-10-19T17:02:03.427Z,4.18
2022-10-19T17:04:29.945Z,2.85
2022-10-19T17:06:57.645Z,3.78
2022-10-19T17:12:12.848Z,8.88
2022-10-19T17:14:41.475Z,3.95
2022-10-19T17:17:09.699Z,5.70
2022-10-19T17:19:37.509Z,5.35
2022-10-19T17:22:05.433Z,6.35
2022-10-19T17:24:32.320Z,5.10
2022-10-19T17:27:01.462Z,4.80
2022-10-19T17:29:27.996Z,4.40
2022-10-19T17:31:54.546Z,5.03
2022-10-19T17:34:21.087Z,8.23
2022-10-19T17:36:47.969Z,6.63
2022-10-19T17:39:18.316Z,6.03
2022-10-19T17:41:46.960Z,7.10
2022-10-19T17:44:14.164Z,7.20
2022-10-19T17:46:41.110Z,8.98
2022-10-19T17:49:07.866Z,6.88
2022-10-19T17:51:36.225Z,5.90
2022-10-19T17:54:08.670Z,5.82
2022-10-19T17:56:36.250Z,4.35
2022-10-19T17:59:03.295Z,5.68
2022-10-19T18:01:30.488Z,5.85
2022-10-19T18:03:57.179Z,4.85
2022-10-19T18:06:29.618Z,5.22
2022-10-19T18:08:57.225Z,6.25
2022-10-19T18:11:32.402Z,9.98
2022-10-19T18:14:00.887Z,7.28
2022-10-19T18:16:30.654Z,4.72
2022-10-19T18:18:59.284Z,8.85
2022-10-19T18:21:35.988Z,5.75
2022-10-19T18:24:03.181Z,6.05
2022-10-19T18:26:32.288Z,8.25
2022-10-19T18:29:00.299Z,8.40
2022-10-19T18:31:31.622Z,3.25
2022-10-19T18:34:04.813Z,7.22
2022-10-19T18:36:32.586Z,7.07
2022-10-19T18:39:01.804Z,5.78
2022-10-19T18:41:29.752Z,5.25
2022-10-19T18:44:03.763Z,4.07
2022-10-19T18:46:30.801Z,6.13
2022-10-19T18:48:57.380Z,3.45
2022-10-19T18:51:24.332Z,4.43
2022-10-19T18:53:51.015Z,4.78
2022-10-19T18:56:20.128Z,4.50
2022-10-19T18:58:47.407Z,5.55
2022-10-19T19:01:15.791Z,4.57
2022-10-19T19:03:44.560Z,3.97
2022-10-19T19:06:20.170Z,3.25
2022-10-19T19:08:47.690Z,6.60
2022-10-19T19:11:17.095Z,8.20
2022-10-19T19:13:51.597Z,3.03
2022-10-19T19:16:19.200Z,6.10
2022-10-19T19:18:46.476Z,5.93
2022-10-19T19:21:19.492Z,6.32
2022-10-19T19:23:46.365Z,4.35
2022-10-19T19:26:13.565Z,3.72
2022-10-19T19:28:41.894Z,5.90
2022-10-19T19:31:10.727Z,6.25
2022-10-19T19:33:38.602Z,5.53
2022-10-19T19:36:06.888Z,5.45
2022-10-19T19:38:34.107Z,4.53
2022-10-19T19:41:04.570Z,10.38
2022-10-19T19:43:33.314Z,4.20
2022-10-19T19:46:04.628Z,6.05
2022-10-19T19:48:34.714Z,7.03
2022-10-19T19:51:01.364Z,4.40
2022-10-19T19:53:27.871Z,5.15
2022-10-19T19:55:54.421Z,5.78
2022-10-19T19:58:21.083Z,6.30
2022-10-19T20:00:47.721Z,5.70
2022-10-19T20:03:14.388Z,8.20
2022-10-19T20:05:41.112Z,5.20
2022-10-19T20:08:08.570Z,4.82
2022-10-19T20:10:39.684Z,5.75
2022-10-19T20:13:06.449Z,5.63
2022-10-19T20:15:33.588Z,5.65
2022-10-19T20:18:00.163Z,6.70
2022-10-19T20:20:26.775Z,7.47
2022-10-19T20:22:53.494Z,9.18
2022-10-19T20:25:20.044Z,6.35
2022-10-19T20:27:46.590Z,5.05
2022-10-19T20:30:13.210Z,4.88
2022-10-19T20:32:39.972Z,7.65
2022-10-19T20:35:07.621Z,5.00
2022-10-19T20:37:34.665Z,6.38
2022-10-19T20:40:08.174Z,5.05
2022-10-19T20:42:35.424Z,7.03
2022-10-19T20:45:02.202Z,7.40
2022-10-19T20:47:28.764Z,7.22
2022-10-19T20:49:55.364Z,6.40
2022-10-19T20:52:21.934Z,6.50
2022-10-19T20:54:49.341Z,8.57
2022-10-19T20:57:15.910Z,8.27
2022-10-19T20:59:44.003Z,6.85
2022-10-19T21:02:11.014Z,6.05
2022-10-19T21:04:37.622Z,6.38
2022-10-19T21:07:05.101Z,8.13
2022-10-19T21:09:32.246Z,5.43
2022-10-19T21:11:58.976Z,7.57
2022-10-19T21:14:28.881Z,7.55
2022-10-19T21:17:02.248Z,5.93
2022-10-19T21:19:30.172Z,6.72
2022-10-19T21:22:02.234Z,8.75
2022-10-19T21:24:34.122Z,5.97
2022-10-19T21:27:02.449Z,7.28
2022-10-19T21:29:29.326Z,8.35
2022-10-19T21:31:56.151Z,5.65
2022-10-19T21:34:25.918Z,7.63
2022-10-19T21:36:53.436Z,6.55
2022-10-19T21:39:20.454Z,8.00
2022-10-19T21:41:48.052Z,6.28
2022-10-19T21:44:16.221Z,6.32
2022-10-19T21:46:45.832Z,6.90
2022-10-19T21:49:12.818Z,11.88
2022-10-19T21:51:46.496Z,5.65
2022-10-19T21:54:15.840Z,8.15
2022-10-19T21:56:43.431Z,8.18
2022-10-19T21:59:10.269Z,10.27
2022-10-19T22:01:40.159Z,8.63
2022-10-19T22:04:11.983Z,10.15
2022-10-19T22:06:38.852Z,9.88
2022-10-19T22:09:07.569Z,6.18
2022-10-19T22:11:34.319Z,7.20
2022-10-19T22:14:03.017Z,6.30
2022-10-19T22:16:31.448Z,11.18
2022-10-19T22:18:58.140Z,6.95
2022-10-19T22:21:28.265Z,8.52
2022-10-19T22:24:07.146Z,7.85
2022-10-19T22:26:39.601Z,8.18
2022-10-19T22:29:07.048Z,9.02
2022-10-19T22:31:34.803Z,8.73
2022-10-19T22:34:07.684Z,6.55
2022-10-19T22:36:34.803Z,8.90
2022-10-19T22:39:01.604Z,9.55
2022-10-19T22:41:28.123Z,7.03
2022-10-19T22:43:54.594Z,6.65
2022-10-19T22:46:21.073Z,6.57
2022-10-19T22:48:47.582Z,6.03
2022-10-19T22:51:14.239Z,7.05
2022-10-19T22:53:40.831Z,8.48
2022-10-19T22:56:08.160Z,9.65
2022-10-19T22:58:34.623Z,9.90
2022-10-19T23:01:04.406Z,9.18
2022-10-19T23:03:30.976Z,6.88
2022-10-19T23:05:58.560Z,9.88
2022-10-19T23:08:25.627Z,5.45
2022-10-19T23:10:52.497Z,6.82
2022-10-19T23:13:19.054Z,6.47
2022-10-19T23:15:45.883Z,10.07
2022-10-19T23:18:13.599Z,8.40
2022-10-19T23:20:40.261Z,9.02
2022-10-19T23:23:07.710Z,6.72
2022-10-19T23:25:34.456Z,7.35
2022-10-19T23:28:01.049Z,7.10
2022-10-19T23:30:27.525Z,9.35
2022-10-19T23:32:54.067Z,7.68
2022-10-19T23:35:20.508Z,7.82
2022-10-19T23:37:47.010Z,5.65
2022-10-19T23:40:13.470Z,12.07
2022-10-19T23:42:40.008Z,9.82
2022-10-19T23:45:07.095Z,7.60
2022-10-19T23:47:33.861Z,7.80
2022-10-19T23:50:00.625Z,11.50
2022-10-19T23:52:27.142Z,11.05
2022-10-19T23:54:53.684Z,8.27
2022-10-19T23:57:20.235Z,8.35
2022-10-19T23:59:46.772Z,8.05
